createdAt,value
2019-04-25T00:03:32.621Z,29
2019-04-25T00:08:32.621Z,31
2019-04-25T00:13:32.588Z,28
2019-04-25T00:18:32.601Z,26
2019-04-25T00:23:32.596Z,28
2019-04-25T00:28:32.576Z,27
2019-04-25T00:33:34.339Z,23
2019-04-25T00:38:34.364Z,28
2019-04-25T00:43:34.353Z,23
2019-04-25T00:48:34.351Z,27
2019-04-25T00:53:34.337Z,22
2019-04-25T00:58:34.355Z,21
2019-04-25T01:03:34.391Z,23
2019-04-25T03:30:21.038Z,28
2019-04-25T03:35:21.023Z,30
2019-04-25T03:40:20.987Z,23
2019-04-25T03:50:28.923Z,25
2019-04-25T03:55:28.989Z,31
2019-04-25T04:00:28.902Z,26
2019-04-25T04:05:28.888Z,28
2019-04-25T04:10:28.906Z,33
2019-04-25T04:15:28.900Z,30
2019-04-25T04:20:28.916Z,27
2019-04-25T04:25:28.871Z,33
2019-04-25T04:30:28.901Z,33
2019-04-25T04:35:28.872Z,31
2019-04-25T04:40:28.896Z,33
2019-04-25T04:45:34.754Z,32
2019-04-25T04:50:33.873Z,33
2019-04-25T04:55:34.512Z,91
2019-04-25T05:00:34.074Z,37
2019-04-25T05:05:34.601Z,32
2019-04-25T05:10:37.134Z,35
2019-04-25T05:15:33.541Z,28
2019-04-25T05:20:35.793Z,23
2019-04-25T05:25:34.689Z,23
2019-04-25T05:30:33.847Z,63
2019-04-25T05:35:33.451Z,29
2019-04-25T05:40:33.749Z,22
2019-04-25T05:45:34.295Z,21
2019-04-25T05:50:34.082Z,21
2019-04-25T05:55:34.491Z,17
2019-04-25T06:00:34.433Z,21
2019-04-25T06:05:33.842Z,20
2019-04-25T06:10:34.020Z,19
2019-04-25T06:37:06.532Z,21
2019-04-25T06:42:06.522Z,20
2019-04-25T06:47:06.453Z,21
2019-04-25T06:52:06.497Z,21
2019-04-25T07:00:49.744Z,19
2019-04-25T07:05:41.093Z,16
2019-04-25T07:10:27.620Z,16
2019-04-25T07:15:28.038Z,12
2019-04-25T07:20:28.410Z,17
2019-04-25T07:25:28.686Z,13
2019-04-25T07:30:54.795Z,18
2019-04-25T07:35:26.874Z,16
2019-04-25T07:40:27.502Z,18
2019-04-25T07:45:27.241Z,17
2019-04-25T07:50:28.709Z,17
2019-04-25T07:55:27.719Z,18
2019-04-25T08:00:27.505Z,16
2019-04-25T08:05:28.011Z,18
2019-04-25T08:10:28.074Z,20
2019-04-25T08:15:26.339Z,20
2019-04-25T08:20:26.372Z,18
2019-04-25T08:25:26.318Z,18
2019-04-25T08:30:26.325Z,19
2019-04-25T08:35:26.330Z,21
2019-04-25T08:40:26.388Z,20
2019-04-25T08:45:26.316Z,18
2019-04-25T08:50:41.140Z,24
2019-04-25T08:55:26.288Z,24
2019-04-25T09:00:26.301Z,27
2019-04-25T09:05:26.457Z,20
2019-04-25T09:10:26.295Z,23
2019-04-25T09:15:26.307Z,26
2019-04-25T09:20:26.313Z,30
2019-04-25T09:25:26.308Z,31
2019-04-25T09:30:26.271Z,33
2019-04-25T09:35:27.066Z,29
2019-04-25T09:40:27.040Z,29
2019-04-25T09:45:27.009Z,28
2019-04-25T09:50:27.048Z,31
2019-04-25T09:55:27.018Z,32
2019-04-25T10:00:27.001Z,30
2019-04-25T10:05:27.048Z,30
2019-04-25T10:10:26.994Z,35
2019-04-25T10:15:26.975Z,32
2019-04-25T10:20:27.030Z,31
2019-04-25T10:25:26.983Z,30
2019-04-25T10:30:27.041Z,36
2019-04-25T10:35:26.969Z,33
2019-04-25T10:40:26.974Z,30
2019-04-25T10:45:26.974Z,34
2019-04-25T10:50:26.989Z,29
2019-04-25T10:55:26.972Z,32
2019-04-25T11:00:26.971Z,33
2019-04-25T11:05:27.016Z,31
2019-04-25T11:10:26.994Z,30
2019-04-25T11:15:37.270Z,29
2019-04-25T11:20:26.972Z,30
2019-04-25T11:25:26.979Z,29
2019-04-25T11:30:26.970Z,33
2019-04-25T11:40:34.871Z,28
2019-04-25T11:45:34.854Z,32
2019-04-25T11:50:37.259Z,27
2019-04-25T11:55:36.730Z,27
2019-04-25T12:00:35.701Z,29
2019-04-25T12:05:35.708Z,29
2019-04-25T12:10:35.696Z,28
2019-04-25T12:15:35.710Z,27
2019-04-25T12:20:36.547Z,24
2019-04-25T12:25:36.485Z,30
2019-04-25T12:30:40.649Z,26
2019-04-25T12:35:36.593Z,29
2019-04-25T12:40:36.447Z,25
2019-04-25T12:45:36.447Z,29
2019-04-25T12:50:36.430Z,27
2019-04-25T12:55:36.507Z,27
2019-04-25T13:01:00.077Z,31
2019-04-25T13:05:36.482Z,25
2019-04-25T13:10:36.450Z,27
2019-04-25T13:15:36.488Z,25
2019-04-25T13:20:36.435Z,22
2019-04-25T13:25:36.430Z,28
2019-04-25T13:30:36.520Z,23
2019-04-25T13:35:43.527Z,23
2019-04-25T13:40:36.438Z,24
2019-04-25T13:45:36.397Z,20
2019-04-25T13:50:36.421Z,25
2019-04-25T13:55:36.919Z,24
2019-04-25T14:00:36.573Z,24
2019-04-25T14:05:36.405Z,24
2019-04-25T14:10:36.483Z,24
2019-04-25T14:15:37.435Z,23
2019-04-25T14:20:37.671Z,24
2019-04-25T14:25:36.377Z,24
2019-04-25T14:30:36.402Z,19
2019-04-25T14:35:36.361Z,23
2019-04-25T14:40:36.438Z,23
2019-04-25T14:45:45.355Z,24
2019-04-25T14:50:36.379Z,21
2019-04-25T14:55:36.369Z,24
2019-04-25T15:00:36.494Z,27
2019-04-25T15:05:37.495Z,27
2019-04-25T15:10:36.364Z,27
2019-04-25T15:15:36.339Z,27
2019-04-25T15:20:36.381Z,32
2019-04-25T15:25:37.195Z,26
2019-04-25T15:30:36.325Z,23
2019-04-25T15:35:51.349Z,28
2019-04-25T15:40:36.662Z,28
2019-04-25T15:45:36.644Z,21
2019-04-25T15:50:36.304Z,22
2019-04-25T15:55:36.313Z,28
2019-04-25T16:00:36.319Z,25
2019-04-25T16:05:36.339Z,25
2019-04-25T16:10:36.742Z,23
2019-04-25T16:15:36.309Z,21
2019-04-25T16:20:36.326Z,25
2019-04-25T16:25:36.317Z,25
2019-04-25T16:30:36.644Z,21
2019-04-25T16:35:36.291Z,19
2019-04-25T16:40:36.445Z,23
2019-04-25T16:45:36.274Z,24
2019-04-25T16:50:36.653Z,22
2019-04-25T16:55:36.835Z,26
2019-04-25T17:00:36.396Z,22
2019-04-25T17:05:37.220Z,23
2019-04-25T17:10:37.103Z,25
2019-04-25T17:15:36.378Z,23
2019-04-25T17:20:38.037Z,25
2019-04-25T17:25:36.237Z,25
2019-04-25T17:30:36.255Z,26
2019-04-25T17:35:36.873Z,27
2019-04-25T17:40:36.289Z,29
2019-04-25T17:45:37.147Z,30
2019-04-25T17:50:36.248Z,31
2019-04-25T17:55:36.194Z,37
2019-04-25T18:00:36.278Z,32
2019-04-25T18:05:36.583Z,40
2019-04-25T18:10:36.240Z,40
2019-04-25T18:15:37.744Z,38
2019-04-25T18:20:36.850Z,41
2019-04-25T18:25:37.106Z,39
2019-04-25T18:30:37.150Z,42
2019-04-25T18:35:44.100Z,48
2019-04-25T18:40:37.936Z,55
2019-04-25T18:45:38.520Z,57
2019-04-25T18:50:38.668Z,52
2019-04-25T18:55:38.062Z,55
2019-04-25T19:00:37.935Z,53
2019-04-25T19:05:36.875Z,52
2019-04-25T19:10:36.880Z,47
2019-04-25T19:15:36.869Z,44
2019-04-25T19:20:36.861Z,40
2019-04-25T19:25:37.066Z,41
2019-04-25T19:30:36.888Z,45
2019-04-25T19:35:36.861Z,36
2019-04-25T19:40:36.887Z,34
2019-04-25T19:45:41.281Z,31
2019-04-25T19:50:36.829Z,33
2019-04-25T19:55:36.833Z,32
2019-04-25T20:00:37.240Z,34
2019-04-25T20:05:36.826Z,32
2019-04-25T20:10:36.854Z,36
2019-04-25T20:15:36.833Z,28
2019-04-25T20:20:36.832Z,30
2019-04-25T20:25:36.819Z,28
2019-04-25T20:30:36.811Z,27
2019-04-25T20:35:36.973Z,29
2019-04-25T20:37:12.253Z,24
2019-04-25T20:42:12.191Z,25
2019-04-25T20:45:39.617Z,28
2019-04-25T20:50:39.606Z,27
2019-04-25T20:55:39.616Z,24
2019-04-25T21:00:40.568Z,25
2019-04-25T21:05:40.569Z,24
2019-04-25T21:10:39.461Z,29
2019-04-25T21:15:39.442Z,30
2019-04-25T21:20:39.600Z,29
2019-04-25T21:25:39.441Z,24
2019-04-25T21:30:39.551Z,28
2019-04-25T21:35:39.526Z,26
2019-04-25T21:40:41.752Z,28
2019-04-25T21:45:40.306Z,27
2019-04-25T21:50:40.569Z,24
2019-04-25T21:55:40.631Z,27
2019-04-25T22:00:46.699Z,23
2019-04-25T22:05:45.771Z,25
2019-04-25T22:10:45.697Z,23
2019-04-25T22:15:46.691Z,21
2019-04-25T22:20:46.540Z,21
2019-04-25T22:25:47.758Z,22
2019-04-25T22:30:45.724Z,26
2019-04-25T22:35:46.699Z,22
2019-04-25T22:40:46.639Z,21
2019-04-25T22:45:45.725Z,22
2019-04-25T22:50:45.735Z,21
2019-04-25T22:55:45.674Z,18
2019-04-25T23:00:45.752Z,18
2019-04-25T23:05:51.137Z,17
2019-04-25T23:10:46.218Z,21
2019-04-25T23:15:46.620Z,23
2019-04-25T23:20:46.373Z,19
2019-04-25T23:25:45.640Z,21
2019-04-25T23:30:47.661Z,26
2019-04-25T23:35:45.605Z,20
2019-04-25T23:40:46.624Z,22
2019-04-25T23:45:46.473Z,22
2019-04-25T23:50:45.621Z,25
2019-04-25T23:55:45.606Z,22
